sensor_id;sensor_type;location;lat;lon;timestamp;P1;durP1;ratioP1;P2;durP2;ratioP2
1831;SDS011;1680;48.106;11.708;2023-03-05T00:01:56;28.50;;;18.70;;
1831;SDS011;1680;48.106;11.708;2023-03-05T00:04:24;27.63;;;18.10;;
1831;SDS011;1680;48.106;11.708;2023-03-05T00:06:51;27.15;;;18.95;;
1831;SDS011;1680;48.106;11.708;2023-03-05T00:09:19;30.33;;;19.48;;
1831;SDS011;1680;48.106;11.708;2023-03-05T00:11:47;29.85;;;20.98;;
1831;SDS011;1680;48.106;11.708;2023-03-05T00:14:14;27.10;;;20.02;;
1831;SDS011;1680;48.106;11.708;2023-03-05T00:16:42;27.70;;;19.65;;
1831;SDS011;1680;48.106;11.708;2023-03-05T00:19:10;26.20;;;18.95;;
1831;SDS011;1680;48.106;11.708;2023-03-05T00:21:38;28.13;;;18.85;;
1831;SDS011;1680;48.106;11.708;2023-03-05T00:24:09;28.05;;;18.98;;
1831;SDS011;1680;48.106;11.708;2023-03-05T00:26:38;27.52;;;19.83;;
1831;SDS011;1680;48.106;11.708;2023-03-05T00:29:06;30.23;;;19.02;;
1831;SDS011;1680;48.106;11.708;2023-03-05T00:31:35;24.95;;;19.00;;
1831;SDS011;1680;48.106;11.708;2023-03-05T00:34:04;28.05;;;19.20;;
1831;SDS011;1680;48.106;11.708;2023-03-05T00:36:34;26.60;;;18.77;;
1831;SDS011;1680;48.106;11.708;2023-03-05T00:39:05;27.33;;;19.25;;
1831;SDS011;1680;48.106;11.708;2023-03-05T00:41:33;27.25;;;17.77;;
1831;SDS011;1680;48.106;11.708;2023-03-05T00:44:00;28.75;;;19.60;;
1831;SDS011;1680;48.106;11.708;2023-03-05T00:46:28;29.95;;;18.80;;
1831;SDS011;1680;48.106;11.708;2023-03-05T00:48:55;25.15;;;17.70;;
1831;SDS011;1680;48.106;11.708;2023-03-05T00:51:23;28.08;;;19.17;;
1831;SDS011;1680;48.106;11.708;2023-03-05T00:53:52;26.95;;;19.27;;
1831;SDS011;1680;48.106;11.708;2023-03-05T00:56:20;30.40;;;19.85;;
1831;SDS011;1680;48.106;11.708;2023-03-05T00:58:48;29.60;;;19.02;;
1831;SDS011;1680;48.106;11.708;2023-03-05T01:01:15;27.50;;;18.73;;
1831;SDS011;1680;48.106;11.708;2023-03-05T01:03:42;29.30;;;19.88;;
1831;SDS011;1680;48.106;11.708;2023-03-05T01:06:11;26.50;;;17.80;;
1831;SDS011;1680;48.106;11.708;2023-03-05T01:08:39;27.23;;;19.40;;
1831;SDS011;1680;48.106;11.708;2023-03-05T01:11:08;27.95;;;19.15;;
1831;SDS011;1680;48.106;11.708;2023-03-05T01:13:37;30.45;;;19.25;;
1831;SDS011;1680;48.106;11.708;2023-03-05T01:16:04;29.95;;;18.00;;
1831;SDS011;1680;48.106;11.708;2023-03-05T01:18:32;24.65;;;17.25;;
1831;SDS011;1680;48.106;11.708;2023-03-05T01:21:00;26.55;;;17.58;;
1831;SDS011;1680;48.106;11.708;2023-03-05T01:23:28;27.02;;;18.83;;
1831;SDS011;1680;48.106;11.708;2023-03-05T01:25:55;26.73;;;18.02;;
1831;SDS011;1680;48.106;11.708;2023-03-05T01:28:26;27.27;;;17.23;;
1831;SDS011;1680;48.106;11.708;2023-03-05T01:30:54;27.17;;;18.88;;
1831;SDS011;1680;48.106;11.708;2023-03-05T01:33:21;28.42;;;18.52;;
1831;SDS011;1680;48.106;11.708;2023-03-05T01:35:49;30.52;;;19.20;;
1831;SDS011;1680;48.106;11.708;2023-03-05T01:38:17;28.65;;;19.50;;
1831;SDS011;1680;48.106;11.708;2023-03-05T01:40:44;27.65;;;18.90;;
1831;SDS011;1680;48.106;11.708;2023-03-05T01:43:20;26.92;;;17.45;;
1831;SDS011;1680;48.106;11.708;2023-03-05T01:49:04;31.15;;;21.27;;
1831;SDS011;1680;48.106;11.708;2023-03-05T01:51:46;32.03;;;21.17;;
1831;SDS011;1680;48.106;11.708;2023-03-05T01:54:25;31.20;;;21.23;;
1831;SDS011;1680;48.106;11.708;2023-03-05T01:56:57;30.55;;;19.65;;
1831;SDS011;1680;48.106;11.708;2023-03-05T01:59:26;30.45;;;21.10;;
1831;SDS011;1680;48.106;11.708;2023-03-05T02:01:55;29.63;;;19.73;;
1831;SDS011;1680;48.106;11.708;2023-03-05T02:04:26;28.60;;;19.00;;
1831;SDS011;1680;48.106;11.708;2023-03-05T02:06:58;30.20;;;19.90;;
1831;SDS011;1680;48.106;11.708;2023-03-05T02:09:26;30.20;;;20.23;;
1831;SDS011;1680;48.106;11.708;2023-03-05T02:11:54;29.80;;;19.25;;
1831;SDS011;1680;48.106;11.708;2023-03-05T02:14:22;29.60;;;19.75;;
1831;SDS011;1680;48.106;11.708;2023-03-05T02:16:50;28.55;;;19.05;;
1831;SDS011;1680;48.106;11.708;2023-03-05T02:19:19;30.73;;;20.35;;
1831;SDS011;1680;48.106;11.708;2023-03-05T02:21:48;29.10;;;19.13;;
1831;SDS011;1680;48.106;11.708;2023-03-05T02:24:16;28.92;;;18.90;;
1831;SDS011;1680;48.106;11.708;2023-03-05T02:26:45;31.33;;;20.35;;
1831;SDS011;1680;48.106;11.708;2023-03-05T02:29:14;26.40;;;18.20;;
1831;SDS011;1680;48.106;11.708;2023-03-05T02:31:44;31.98;;;20.50;;
1831;SDS011;1680;48.106;11.708;2023-03-05T02:34:11;28.33;;;19.00;;
1831;SDS011;1680;48.106;11.708;2023-03-05T02:36:39;31.27;;;21.27;;
1831;SDS011;1680;48.106;11.708;2023-03-05T02:39:07;28.38;;;19.00;;
1831;SDS011;1680;48.106;11.708;2023-03-05T02:41:35;29.65;;;19.83;;
1831;SDS011;1680;48.106;11.708;2023-03-05T02:44:02;30.65;;;19.13;;
1831;SDS011;1680;48.106;11.708;2023-03-05T02:46:30;31.83;;;19.73;;
1831;SDS011;1680;48.106;11.708;2023-03-05T02:48:58;30.65;;;20.00;;
1831;SDS011;1680;48.106;11.708;2023-03-05T02:51:25;32.97;;;21.00;;
1831;SDS011;1680;48.106;11.708;2023-03-05T02:53:52;33.10;;;20.60;;
1831;SDS011;1680;48.106;11.708;2023-03-05T02:56:21;30.20;;;19.25;;
1831;SDS011;1680;48.106;11.708;2023-03-05T02:58:48;30.55;;;21.23;;
1831;SDS011;1680;48.106;11.708;2023-03-05T03:01:16;31.90;;;20.73;;
1831;SDS011;1680;48.106;11.708;2023-03-05T03:03:43;28.60;;;19.92;;
1831;SDS011;1680;48.106;11.708;2023-03-05T03:06:10;31.77;;;20.90;;
1831;SDS011;1680;48.106;11.708;2023-03-05T03:08:37;28.70;;;20.17;;
1831;SDS011;1680;48.106;11.708;2023-03-05T03:11:05;30.67;;;19.92;;
1831;SDS011;1680;48.106;11.708;2023-03-05T03:13:35;33.80;;;20.48;;
1831;SDS011;1680;48.106;11.708;2023-03-05T03:16:03;30.38;;;20.20;;
1831;SDS011;1680;48.106;11.708;2023-03-05T03:18:32;32.50;;;20.55;;
1831;SDS011;1680;48.106;11.708;2023-03-05T03:20:59;30.00;;;19.60;;
1831;SDS011;1680;48.106;11.708;2023-03-05T03:23:27;34.35;;;20.25;;
1831;SDS011;1680;48.106;11.708;2023-03-05T03:25:55;33.88;;;19.35;;
1831;SDS011;1680;48.106;11.708;2023-03-05T03:28:22;36.72;;;22.02;;
1831;SDS011;1680;48.106;11.708;2023-03-05T03:30:51;36.45;;;21.05;;
1831;SDS011;1680;48.106;11.708;2023-03-05T03:33:19;34.50;;;21.90;;
1831;SDS011;1680;48.106;11.708;2023-03-05T03:35:46;34.22;;;21.45;;
1831;SDS011;1680;48.106;11.708;2023-03-05T03:38:13;30.70;;;19.83;;
1831;SDS011;1680;48.106;11.708;2023-03-05T03:40:41;31.02;;;20.42;;
1831;SDS011;1680;48.106;11.708;2023-03-05T03:43:08;35.45;;;21.88;;
1831;SDS011;1680;48.106;11.708;2023-03-05T03:45:38;33.75;;;20.27;;
1831;SDS011;1680;48.106;11.708;2023-03-05T03:48:08;33.17;;;20.52;;
1831;SDS011;1680;48.106;11.708;2023-03-05T03:50:37;35.75;;;20.75;;
1831;SDS011;1680;48.106;11.708;2023-03-05T03:53:05;36.22;;;20.90;;
1831;SDS011;1680;48.106;11.708;2023-03-05T03:55:32;33.92;;;21.10;;
1831;SDS011;1680;48.106;11.708;2023-03-05T03:58:00;33.72;;;21.35;;
1831;SDS011;1680;48.106;11.708;2023-03-05T04:00:28;38.78;;;21.92;;
1831;SDS011;1680;48.106;11.708;2023-03-05T04:02:55;31.52;;;20.48;;
1831;SDS011;1680;48.106;11.708;2023-03-05T04:05:24;33.40;;;20.95;;
1831;SDS011;1680;48.106;11.708;2023-03-05T04:07:51;33.45;;;21.95;;
1831;SDS011;1680;48.106;11.708;2023-03-05T04:10:19;34.67;;;20.88;;
1831;SDS011;1680;48.106;11.708;2023-03-05T04:12:46;35.85;;;20.55;;
1831;SDS011;1680;48.106;11.708;2023-03-05T04:15:13;35.38;;;21.33;;
1831;SDS011;1680;48.106;11.708;2023-03-05T04:17:40;35.45;;;22.40;;
1831;SDS011;1680;48.106;11.708;2023-03-05T04:20:08;38.45;;;21.85;;
1831;SDS011;1680;48.106;11.708;2023-03-05T04:22:38;35.08;;;20.13;;
1831;SDS011;1680;48.106;11.708;2023-03-05T04:25:05;36.40;;;21.40;;
1831;SDS011;1680;48.106;11.708;2023-03-05T04:27:34;40.58;;;22.90;;
1831;SDS011;1680;48.106;11.708;2023-03-05T04:30:04;36.00;;;22.85;;
1831;SDS011;1680;48.106;11.708;2023-03-05T04:32:34;34.85;;;20.52;;
1831;SDS011;1680;48.106;11.708;2023-03-05T04:35:01;34.63;;;21.58;;
1831;SDS011;1680;48.106;11.708;2023-03-05T04:37:29;34.17;;;20.75;;
1831;SDS011;1680;48.106;11.708;2023-03-05T04:39:58;33.75;;;20.77;;
1831;SDS011;1680;48.106;11.708;2023-03-05T04:42:25;35.47;;;21.63;;
1831;SDS011;1680;48.106;11.708;2023-03-05T04:44:52;32.63;;;20.15;;
1831;SDS011;1680;48.106;11.708;2023-03-05T04:47:19;32.63;;;20.00;;
1831;SDS011;1680;48.106;11.708;2023-03-05T04:49:47;33.08;;;20.88;;
1831;SDS011;1680;48.106;11.708;2023-03-05T04:52:14;33.65;;;20.23;;
1831;SDS011;1680;48.106;11.708;2023-03-05T04:54:42;32.83;;;19.25;;
1831;SDS011;1680;48.106;11.708;2023-03-05T04:57:11;30.20;;;19.45;;
1831;SDS011;1680;48.106;11.708;2023-03-05T04:59:38;36.13;;;21.50;;
1831;SDS011;1680;48.106;11.708;2023-03-05T05:02:06;32.75;;;19.55;;
1831;SDS011;1680;48.106;11.708;2023-03-05T05:04:33;32.92;;;19.33;;
1831;SDS011;1680;48.106;11.708;2023-03-05T05:07:00;34.00;;;19.73;;
1831;SDS011;1680;48.106;11.708;2023-03-05T05:09:28;39.05;;;19.48;;
1831;SDS011;1680;48.106;11.708;2023-03-05T05:11:56;32.50;;;19.85;;
1831;SDS011;1680;48.106;11.708;2023-03-05T05:14:24;29.38;;;18.52;;
1831;SDS011;1680;48.106;11.708;2023-03-05T05:16:52;35.47;;;20.42;;
1831;SDS011;1680;48.106;11.708;2023-03-05T05:19:19;30.90;;;19.38;;
1831;SDS011;1680;48.106;11.708;2023-03-05T05:21:46;32.92;;;20.42;;
1831;SDS011;1680;48.106;11.708;2023-03-05T05:24:13;31.85;;;19.90;;
1831;SDS011;1680;48.106;11.708;2023-03-05T05:26:41;31.38;;;19.30;;
1831;SDS011;1680;48.106;11.708;2023-03-05T05:29:08;39.20;;;21.15;;
1831;SDS011;1680;48.106;11.708;2023-03-05T05:31:37;33.65;;;19.17;;
1831;SDS011;1680;48.106;11.708;2023-03-05T05:34:04;32.35;;;19.48;;
1831;SDS011;1680;48.106;11.708;2023-03-05T05:36:31;29.35;;;18.75;;
1831;SDS011;1680;48.106;11.708;2023-03-05T05:38:58;35.58;;;20.15;;
1831;SDS011;1680;48.106;11.708;2023-03-05T05:41:26;35.17;;;20.25;;
1831;SDS011;1680;48.106;11.708;2023-03-05T05:43:53;32.45;;;19.15;;
1831;SDS011;1680;48.106;11.708;2023-03-05T05:46:20;32.00;;;19.88;;
1831;SDS011;1680;48.106;11.708;2023-03-05T05:48:50;36.28;;;20.45;;
1831;SDS011;1680;48.106;11.708;2023-03-05T05:51:18;28.13;;;18.33;;
1831;SDS011;1680;48.106;11.708;2023-03-05T05:53:47;30.80;;;18.50;;
1831;SDS011;1680;48.106;11.708;2023-03-05T05:56:16;31.35;;;18.92;;
1831;SDS011;1680;48.106;11.708;2023-03-05T05:58:44;31.60;;;18.45;;
1831;SDS011;1680;48.106;11.708;2023-03-05T06:01:14;30.15;;;19.05;;
1831;SDS011;1680;48.106;11.708;2023-03-05T06:03:43;40.55;;;20.15;;
1831;SDS011;1680;48.106;11.708;2023-03-05T06:06:13;30.25;;;17.98;;
1831;SDS011;1680;48.106;11.708;2023-03-05T06:08:42;31.88;;;19.13;;
1831;SDS011;1680;48.106;11.708;2023-03-05T06:11:09;31.20;;;18.00;;
1831;SDS011;1680;48.106;11.708;2023-03-05T06:13:36;31.30;;;18.75;;
1831;SDS011;1680;48.106;11.708;2023-03-05T06:16:06;29.55;;;18.30;;
1831;SDS011;1680;48.106;11.708;2023-03-05T06:18:35;28.80;;;17.15;;
1831;SDS011;1680;48.106;11.708;2023-03-05T06:21:03;27.73;;;17.27;;
1831;SDS011;1680;48.106;11.708;2023-03-05T06:23:33;29.27;;;18.05;;
1831;SDS011;1680;48.106;11.708;2023-03-05T06:26:02;29.90;;;17.42;;
1831;SDS011;1680;48.106;11.708;2023-03-05T06:28:31;30.67;;;18.25;;
1831;SDS011;1680;48.106;11.708;2023-03-05T06:30:59;28.08;;;17.52;;
1831;SDS011;1680;48.106;11.708;2023-03-05T06:33:28;27.48;;;16.83;;
1831;SDS011;1680;48.106;11.708;2023-03-05T06:35:55;28.58;;;17.60;;
1831;SDS011;1680;48.106;11.708;2023-03-05T06:38:23;26.30;;;16.40;;
1831;SDS011;1680;48.106;11.708;2023-03-05T06:40:52;24.77;;;15.90;;
1831;SDS011;1680;48.106;11.708;2023-03-05T06:43:19;24.88;;;15.57;;
1831;SDS011;1680;48.106;11.708;2023-03-05T06:45:46;23.35;;;15.20;;
1831;SDS011;1680;48.106;11.708;2023-03-05T06:48:13;26.75;;;15.77;;
1831;SDS011;1680;48.106;11.708;2023-03-05T06:50:41;27.25;;;17.20;;
1831;SDS011;1680;48.106;11.708;2023-03-05T06:53:08;25.77;;;16.38;;
1831;SDS011;1680;48.106;11.708;2023-03-05T06:55:35;25.65;;;16.25;;
1831;SDS011;1680;48.106;11.708;2023-03-05T06:58:06;24.98;;;16.63;;
1831;SDS011;1680;48.106;11.708;2023-03-05T07:00:34;26.02;;;15.88;;
1831;SDS011;1680;48.106;11.708;2023-03-05T07:03:01;25.60;;;15.95;;
1831;SDS011;1680;48.106;11.708;2023-03-05T07:05:28;25.25;;;16.10;;
1831;SDS011;1680;48.106;11.708;2023-03-05T07:07:56;28.92;;;15.82;;
1831;SDS011;1680;48.106;11.708;2023-03-05T07:10:23;23.25;;;15.18;;
1831;SDS011;1680;48.106;11.708;2023-03-05T07:12:50;27.30;;;16.15;;
1831;SDS011;1680;48.106;11.708;2023-03-05T07:15:19;26.83;;;15.95;;
1831;SDS011;1680;48.106;11.708;2023-03-05T07:17:46;27.33;;;15.40;;
1831;SDS011;1680;48.106;11.708;2023-03-05T07:20:13;24.13;;;15.98;;
1831;SDS011;1680;48.106;11.708;2023-03-05T07:22:41;24.80;;;15.63;;
1831;SDS011;1680;48.106;11.708;2023-03-05T07:25:08;27.42;;;16.95;;
1831;SDS011;1680;48.106;11.708;2023-03-05T07:27:36;24.58;;;16.60;;
1831;SDS011;1680;48.106;11.708;2023-03-05T07:30:04;23.23;;;15.52;;
1831;SDS011;1680;48.106;11.708;2023-03-05T07:32:35;27.33;;;15.80;;
1831;SDS011;1680;48.106;11.708;2023-03-05T07:35:02;24.45;;;15.02;;
1831;SDS011;1680;48.106;11.708;2023-03-05T07:37:29;27.08;;;16.17;;
1831;SDS011;1680;48.106;11.708;2023-03-05T07:39:56;24.23;;;14.40;;
1831;SDS011;1680;48.106;11.708;2023-03-05T07:42:24;28.05;;;15.95;;
1831;SDS011;1680;48.106;11.708;2023-03-05T07:44:51;25.08;;;15.30;;
1831;SDS011;1680;48.106;11.708;2023-03-05T07:47:18;26.25;;;15.15;;
1831;SDS011;1680;48.106;11.708;2023-03-05T07:49:48;26.52;;;16.23;;
1831;SDS011;1680;48.106;11.708;2023-03-05T07:52:16;28.25;;;16.10;;
1831;SDS011;1680;48.106;11.708;2023-03-05T07:54:43;28.67;;;16.77;;
1831;SDS011;1680;48.106;11.708;2023-03-05T07:57:10;30.52;;;16.70;;
1831;SDS011;1680;48.106;11.708;2023-03-05T07:59:38;26.98;;;16.83;;
1831;SDS011;1680;48.106;11.708;2023-03-05T08:02:06;26.30;;;16.13;;
1831;SDS011;1680;48.106;11.708;2023-03-05T08:04:33;24.77;;;15.25;;
1831;SDS011;1680;48.106;11.708;2023-03-05T08:07:02;22.42;;;15.70;;
1831;SDS011;1680;48.106;11.708;2023-03-05T08:09:29;26.30;;;16.67;;
1831;SDS011;1680;48.106;11.708;2023-03-05T08:11:56;27.08;;;16.33;;
1831;SDS011;1680;48.106;11.708;2023-03-05T08:14:24;31.00;;;17.30;;
1831;SDS011;1680;48.106;11.708;2023-03-05T08:16:51;25.20;;;15.65;;
1831;SDS011;1680;48.106;11.708;2023-03-05T08:19:18;27.75;;;17.13;;
1831;SDS011;1680;48.106;11.708;2023-03-05T08:21:46;26.48;;;14.82;;
1831;SDS011;1680;48.106;11.708;2023-03-05T08:24:15;24.73;;;14.63;;
1831;SDS011;1680;48.106;11.708;2023-03-05T08:26:42;24.10;;;14.63;;
1831;SDS011;1680;48.106;11.708;2023-03-05T08:29:09;25.83;;;15.80;;
1831;SDS011;1680;48.106;11.708;2023-03-05T08:31:36;26.23;;;14.63;;
1831;SDS011;1680;48.106;11.708;2023-03-05T08:34:04;27.48;;;15.95;;
1831;SDS011;1680;48.106;11.708;2023-03-05T08:36:32;25.23;;;16.33;;
1831;SDS011;1680;48.106;11.708;2023-03-05T08:38:59;27.25;;;17.23;;
1831;SDS011;1680;48.106;11.708;2023-03-05T08:41:28;26.88;;;16.63;;
1831;SDS011;1680;48.106;11.708;2023-03-05T08:43:56;25.67;;;15.70;;
1831;SDS011;1680;48.106;11.708;2023-03-05T08:46:23;26.38;;;17.05;;
1831;SDS011;1680;48.106;11.708;2023-03-05T08:48:50;27.60;;;16.98;;
1831;SDS011;1680;48.106;11.708;2023-03-05T08:51:20;24.85;;;16.55;;
1831;SDS011;1680;48.106;11.708;2023-03-05T08:53:50;26.02;;;16.38;;
1831;SDS011;1680;48.106;11.708;2023-03-05T08:56:18;29.70;;;17.77;;
1831;SDS011;1680;48.106;11.708;2023-03-05T08:58:47;25.83;;;15.55;;
1831;SDS011;1680;48.106;11.708;2023-03-05T09:01:16;25.73;;;16.55;;
1831;SDS011;1680;48.106;11.708;2023-03-05T09:03:43;25.25;;;15.68;;
1831;SDS011;1680;48.106;11.708;2023-03-05T09:06:10;25.90;;;15.82;;
1831;SDS011;1680;48.106;11.708;2023-03-05T09:08:38;27.10;;;15.80;;
1831;SDS011;1680;48.106;11.708;2023-03-05T09:11:07;27.92;;;15.90;;
1831;SDS011;1680;48.106;11.708;2023-03-05T09:13:37;26.08;;;15.85;;
1831;SDS011;1680;48.106;11.708;2023-03-05T09:16:07;26.70;;;17.00;;
1831;SDS011;1680;48.106;11.708;2023-03-05T09:18:36;30.83;;;16.88;;
1831;SDS011;1680;48.106;11.708;2023-03-05T09:21:04;21.37;;;14.83;;
1831;SDS011;1680;48.106;11.708;2023-03-05T09:23:32;26.83;;;15.77;;
1831;SDS011;1680;48.106;11.708;2023-03-05T09:26:00;26.95;;;16.77;;
1831;SDS011;1680;48.106;11.708;2023-03-05T09:28:27;26.17;;;16.75;;
1831;SDS011;1680;48.106;11.708;2023-03-05T09:30:54;28.00;;;15.98;;
1831;SDS011;1680;48.106;11.708;2023-03-05T09:33:23;23.63;;;14.82;;
1831;SDS011;1680;48.106;11.708;2023-03-05T09:35:50;25.55;;;15.15;;
1831;SDS011;1680;48.106;11.708;2023-03-05T09:38:17;23.40;;;15.07;;
1831;SDS011;1680;48.106;11.708;2023-03-05T09:40:47;23.77;;;15.32;;
1831;SDS011;1680;48.106;11.708;2023-03-05T09:43:23;25.33;;;15.10;;
1831;SDS011;1680;48.106;11.708;2023-03-05T09:45:59;24.80;;;16.35;;
1831;SDS011;1680;48.106;11.708;2023-03-05T09:48:40;24.67;;;15.95;;
1831;SDS011;1680;48.106;11.708;2023-03-05T09:51:15;21.77;;;14.25;;
1831;SDS011;1680;48.106;11.708;2023-03-05T09:53:48;24.90;;;14.70;;
1831;SDS011;1680;48.106;11.708;2023-03-05T09:56:20;27.60;;;14.40;;
1831;SDS011;1680;48.106;11.708;2023-03-05T09:58:50;22.73;;;14.17;;
1831;SDS011;1680;48.106;11.708;2023-03-05T10:01:21;23.37;;;14.97;;
1831;SDS011;1680;48.106;11.708;2023-03-05T10:03:56;24.55;;;15.05;;
1831;SDS011;1680;48.106;11.708;2023-03-05T10:06:28;22.77;;;14.60;;
1831;SDS011;1680;48.106;11.708;2023-03-05T10:08:57;23.83;;;14.55;;
1831;SDS011;1680;48.106;11.708;2023-03-05T10:11:42;24.05;;;15.05;;
1831;SDS011;1680;48.106;11.708;2023-03-05T10:14:20;23.98;;;15.55;;
1831;SDS011;1680;48.106;11.708;2023-03-05T10:16:54;23.40;;;15.15;;
1831;SDS011;1680;48.106;11.708;2023-03-05T10:19:37;21.95;;;14.88;;
1831;SDS011;1680;48.106;11.708;2023-03-05T10:22:23;27.02;;;16.45;;
1831;SDS011;1680;48.106;11.708;2023-03-05T10:25:08;27.08;;;15.50;;
1831;SDS011;1680;48.106;11.708;2023-03-05T10:27:45;26.88;;;15.38;;
1831;SDS011;1680;48.106;11.708;2023-03-05T10:30:22;24.92;;;15.20;;
1831;SDS011;1680;48.106;11.708;2023-03-05T10:33:01;22.08;;;14.85;;
1831;SDS011;1680;48.106;11.708;2023-03-05T10:35:46;25.63;;;15.20;;
1831;SDS011;1680;48.106;11.708;2023-03-05T10:38:29;29.13;;;15.40;;
1831;SDS011;1680;48.106;11.708;2023-03-05T10:41:10;21.80;;;15.07;;
1831;SDS011;1680;48.106;11.708;2023-03-05T10:43:50;28.25;;;14.98;;
1831;SDS011;1680;48.106;11.708;2023-03-05T10:46:22;25.03;;;14.83;;
1831;SDS011;1680;48.106;11.708;2023-03-05T10:48:57;23.00;;;14.73;;
1831;SDS011;1680;48.106;11.708;2023-03-05T10:51:31;25.50;;;15.38;;
1831;SDS011;1680;48.106;11.708;2023-03-05T10:54:03;22.75;;;15.52;;
1831;SDS011;1680;48.106;11.708;2023-03-05T10:56:37;21.33;;;14.40;;
1831;SDS011;1680;48.106;11.708;2023-03-05T10:59:05;23.17;;;15.27;;
1831;SDS011;1680;48.106;11.708;2023-03-05T11:01:32;25.63;;;14.70;;
1831;SDS011;1680;48.106;11.708;2023-03-05T11:04:01;23.98;;;13.82;;
1831;SDS011;1680;48.106;11.708;2023-03-05T11:06:33;21.75;;;13.95;;
1831;SDS011;1680;48.106;11.708;2023-03-05T11:09:19;21.42;;;13.88;;
1831;SDS011;1680;48.106;11.708;2023-03-05T11:12:02;24.63;;;14.57;;
1831;SDS011;1680;48.106;11.708;2023-03-05T11:14:37;26.50;;;16.73;;
1831;SDS011;1680;48.106;11.708;2023-03-05T11:17:23;26.60;;;15.73;;
1831;SDS011;1680;48.106;11.708;2023-03-05T11:19:54;25.10;;;14.65;;
1831;SDS011;1680;48.106;11.708;2023-03-05T11:22:23;26.35;;;17.17;;
1831;SDS011;1680;48.106;11.708;2023-03-05T11:27:43;25.23;;;14.83;;
1831;SDS011;1680;48.106;11.708;2023-03-05T11:30:17;24.27;;;14.77;;
1831;SDS011;1680;48.106;11.708;2023-03-05T11:32:46;22.17;;;14.27;;
1831;SDS011;1680;48.106;11.708;2023-03-05T11:35:25;23.03;;;14.20;;
1831;SDS011;1680;48.106;11.708;2023-03-05T11:38:01;21.63;;;13.67;;
1831;SDS011;1680;48.106;11.708;2023-03-05T11:40:30;22.87;;;13.37;;
1831;SDS011;1680;48.106;11.708;2023-03-05T11:43:00;19.97;;;13.90;;
1831;SDS011;1680;48.106;11.708;2023-03-05T11:45:30;22.27;;;14.60;;
1831;SDS011;1680;48.106;11.708;2023-03-05T11:48:00;22.52;;;13.80;;
1831;SDS011;1680;48.106;11.708;2023-03-05T11:50:34;23.27;;;15.00;;
1831;SDS011;1680;48.106;11.708;2023-03-05T11:53:06;21.27;;;12.93;;
1831;SDS011;1680;48.106;11.708;2023-03-05T11:55:39;22.47;;;14.40;;
1831;SDS011;1680;48.106;11.708;2023-03-05T12:00:57;21.27;;;13.07;;
1831;SDS011;1680;48.106;11.708;2023-03-05T12:03:26;21.30;;;13.60;;
1831;SDS011;1680;48.106;11.708;2023-03-05T12:05:59;22.40;;;14.27;;
1831;SDS011;1680;48.106;11.708;2023-03-05T12:08:43;24.80;;;14.77;;
1831;SDS011;1680;48.106;11.708;2023-03-05T12:11:14;24.33;;;15.13;;
1831;SDS011;1680;48.106;11.708;2023-03-05T12:13:45;22.97;;;15.10;;
1831;SDS011;1680;48.106;11.708;2023-03-05T12:16:21;24.20;;;14.30;;
1831;SDS011;1680;48.106;11.708;2023-03-05T12:18:59;22.17;;;15.23;;
1831;SDS011;1680;48.106;11.708;2023-03-05T12:21:41;25.17;;;14.53;;
1831;SDS011;1680;48.106;11.708;2023-03-05T12:27:05;21.30;;;13.60;;
1831;SDS011;1680;48.106;11.708;2023-03-05T12:29:40;24.60;;;14.80;;
1831;SDS011;1680;48.106;11.708;2023-03-05T12:35:24;19.50;;;13.30;;
1831;SDS011;1680;48.106;11.708;2023-03-05T12:37:56;21.60;;;14.23;;
1831;SDS011;1680;48.106;11.708;2023-03-05T12:40:43;19.47;;;12.73;;
1831;SDS011;1680;48.106;11.708;2023-03-05T12:43:26;19.27;;;13.23;;
1831;SDS011;1680;48.106;11.708;2023-03-05T12:48:48;16.57;;;11.60;;
1831;SDS011;1680;48.106;11.708;2023-03-05T12:51:29;17.70;;;10.63;;
1831;SDS011;1680;48.106;11.708;2023-03-05T12:54:09;15.70;;;9.90;;
1831;SDS011;1680;48.106;11.708;2023-03-05T12:56:52;20.33;;;11.53;;
1831;SDS011;1680;48.106;11.708;2023-03-05T12:59:22;17.00;;;10.70;;
1831;SDS011;1680;48.106;11.708;2023-03-05T13:01:54;18.13;;;10.70;;
1831;SDS011;1680;48.106;11.708;2023-03-05T13:04:25;13.90;;;10.23;;
1831;SDS011;1680;48.106;11.708;2023-03-05T13:06:56;16.00;;;9.70;;
1831;SDS011;1680;48.106;11.708;2023-03-05T13:09:26;16.60;;;11.07;;
1831;SDS011;1680;48.106;11.708;2023-03-05T13:11:57;15.80;;;10.40;;
1831;SDS011;1680;48.106;11.708;2023-03-05T13:14:27;17.60;;;11.73;;
1831;SDS011;1680;48.106;11.708;2023-03-05T13:17:02;17.53;;;10.83;;
1831;SDS011;1680;48.106;11.708;2023-03-05T13:19:45;15.17;;;9.90;;
1831;SDS011;1680;48.106;11.708;2023-03-05T13:22:12;15.63;;;10.90;;
1831;SDS011;1680;48.106;11.708;2023-03-05T13:24:39;15.37;;;10.50;;
1831;SDS011;1680;48.106;11.708;2023-03-05T13:27:19;16.80;;;10.30;;
1831;SDS011;1680;48.106;11.708;2023-03-05T13:29:50;12.43;;;9.40;;
1831;SDS011;1680;48.106;11.708;2023-03-05T13:32:20;15.10;;;9.80;;
1831;SDS011;1680;48.106;11.708;2023-03-05T13:34:52;18.07;;;10.30;;
1831;SDS011;1680;48.106;11.708;2023-03-05T13:37:23;16.10;;;9.03;;
1831;SDS011;1680;48.106;11.708;2023-03-05T13:39:52;13.00;;;8.73;;
1831;SDS011;1680;48.106;11.708;2023-03-05T13:42:25;14.60;;;10.27;;
1831;SDS011;1680;48.106;11.708;2023-03-05T13:44:54;14.70;;;10.33;;
1831;SDS011;1680;48.106;11.708;2023-03-05T13:47:23;17.03;;;10.90;;
1831;SDS011;1680;48.106;11.708;2023-03-05T13:49:56;14.70;;;10.40;;
1831;SDS011;1680;48.106;11.708;2023-03-05T13:52:26;15.40;;;9.90;;
1831;SDS011;1680;48.106;11.708;2023-03-05T13:54:55;12.33;;;8.23;;
1831;SDS011;1680;48.106;11.708;2023-03-05T13:57:32;12.00;;;8.10;;
1831;SDS011;1680;48.106;11.708;2023-03-05T14:00:03;16.20;;;9.90;;
1831;SDS011;1680;48.106;11.708;2023-03-05T14:02:31;16.00;;;10.70;;
1831;SDS011;1680;48.106;11.708;2023-03-05T14:04:58;14.20;;;10.47;;
1831;SDS011;1680;48.106;11.708;2023-03-05T14:07:30;12.17;;;9.20;;
1831;SDS011;1680;48.106;11.708;2023-03-05T14:10:00;14.90;;;10.10;;
1831;SDS011;1680;48.106;11.708;2023-03-05T14:12:29;14.47;;;10.07;;
1831;SDS011;1680;48.106;11.708;2023-03-05T14:15:02;15.97;;;10.60;;
1831;SDS011;1680;48.106;11.708;2023-03-05T14:17:45;17.53;;;11.07;;
1831;SDS011;1680;48.106;11.708;2023-03-05T14:20:21;15.10;;;9.43;;
1831;SDS011;1680;48.106;11.708;2023-03-05T14:22:52;14.90;;;10.10;;
1831;SDS011;1680;48.106;11.708;2023-03-05T14:25:28;15.47;;;10.10;;
1831;SDS011;1680;48.106;11.708;2023-03-05T14:28:04;15.70;;;10.55;;
1831;SDS011;1680;48.106;11.708;2023-03-05T14:30:33;15.83;;;10.30;;
1831;SDS011;1680;48.106;11.708;2023-03-05T14:33:01;13.27;;;9.17;;
1831;SDS011;1680;48.106;11.708;2023-03-05T14:35:29;18.53;;;10.60;;
1831;SDS011;1680;48.106;11.708;2023-03-05T14:37:57;17.73;;;10.97;;
1831;SDS011;1680;48.106;11.708;2023-03-05T14:40:26;16.50;;;11.17;;
1831;SDS011;1680;48.106;11.708;2023-03-05T14:42:56;15.20;;;10.70;;
1831;SDS011;1680;48.106;11.708;2023-03-05T14:45:26;16.03;;;10.67;;
1831;SDS011;1680;48.106;11.708;2023-03-05T14:47:55;18.73;;;10.80;;
1831;SDS011;1680;48.106;11.708;2023-03-05T14:50:24;14.80;;;10.30;;
1831;SDS011;1680;48.106;11.708;2023-03-05T14:52:53;16.90;;;11.03;;
1831;SDS011;1680;48.106;11.708;2023-03-05T14:55:25;17.03;;;11.50;;
1831;SDS011;1680;48.106;11.708;2023-03-05T14:57:56;15.20;;;10.70;;
1831;SDS011;1680;48.106;11.708;2023-03-05T15:00:30;14.87;;;10.33;;
1831;SDS011;1680;48.106;11.708;2023-03-05T15:02:57;16.87;;;10.60;;
1831;SDS011;1680;48.106;11.708;2023-03-05T15:05:24;18.00;;;11.03;;
1831;SDS011;1680;48.106;11.708;2023-03-05T15:07:52;14.40;;;9.97;;
1831;SDS011;1680;48.106;11.708;2023-03-05T15:10:20;18.33;;;10.80;;